Edmonton Stony Plain Alta., Canada
Current Conditions -  °F | °C
As of 1:00 AM on Saturday 20 Dec 2014 (Local Time) from CZVL Reporting Station
Haze Haze  
Wind Chill: -8°   Ceiling: 8500
Heat Index: -8°   Visibility: 3mi
Dew Point: -9°   Wind: 2mph
Humidity: 93%   Direction: 230°SW
Pressure: 29.69"   Gusts: NA
Location:  53.53°N, 114.1°W
Report Text: CZVL 200800Z AUTO 23002KT 3SM BR OVC085 M08/M09 A2969 RMK SLP097
Loading
Personal Weather Stations






























Interactive Weather Map New forecast layout! Learn more

10-Day Weather Forecast

Advertisements
Track Severe Weather on mobile